North Bend, Nebraska
Current Conditions -  °F | °C
As of 10:35 AM on Tuesday 27 Jan 2015 (Local Time) from KFET Reporting Station
Clear Clear  
Wind Chill: 37°   Ceiling: Unl
Heat Index: 42°   Visibility: 10mi
Dew Point: 35°   Wind: 10mph
Humidity: 74%   Direction: 130°SE
Pressure: 30.13"   Gusts: NA
Location:  41.46°N, 96.78°W
Report Text: KFET 271635Z AUTO 13009KT 10SM CLR 06/02 A3013 RMK AO2 T00580015
Loading
Personal Weather Stations






























Interactive Weather Map New forecast layout! Learn more

10-Day Weather Forecast

Advertisements
Track Severe Weather on mobile